This is the latest recevied weather packets stored in our database for station/object EW8GT-13. If no packets are shown the sender has not sent any weather packets the latest 1 day(s).
| Time | Temp. | Humidity | Pressure | Rain* | Wind** | Luminosity | Snow |
|---|---|---|---|---|---|---|---|
| 1778220770 | 23.33° C | 42% | 998.4 hPa | - | - | - | - |
| 1778220408 | 22.78° C | 42% | 998.4 hPa | - | - | - | - |
| 1778219325 | 21.67° C | 44% | 998.3 hPa | - | - | - | - |
| 1778218964 | 21.67° C | 45% | 998.3 hPa | - | - | - | - |
| 1778170622 | 31.11° C | 20% | 995.5 hPa | - | - | - | - |
| 1778169538 | 31.11° C | 20% | 995.5 hPa | - | - | - | - |
| 1778169177 | 31.11° C | 20% | 995.5 hPa | - | - | - | - |
| 1778168816 | 31.11° C | 20% | 995.5 hPa | - | - | - | - |
| 1778167371 | 31.11° C | 20% | 995.5 hPa | - | - | - | - |
| 1778167010 | 31.11° C | 20% | 995.5 hPa | - | - | - | - |
| 1778165565 | 31.11° C | 20% | 995.5 hPa | - | - | - | - |
| 1778165204 | 31.11° C | 20% | 995.5 hPa | - | - | - | - |
| 1778163398 | 31.11° C | 20% | 995.5 hPa | - | - | - | - |
| 1778161230 | 31.67° C | 20% | 995.7 hPa | - | - | - | - |
| 1778160869 | 31.67° C | 19% | 995.7 hPa | - | - | - | - |
| 1778160508 | 31.67° C | 19% | 995.8 hPa | - | - | - | - |
| 1778159063 | 32.22° C | 20% | 995.9 hPa | - | - | - | - |
| 1778158702 | 32.22° C | 19% | 996 hPa | - | - | - | - |
| 1778157257 | 32.78° C | 19% | 996.1 hPa | - | - | - | - |
| 1778156896 | 32.22° C | 19% | 996.2 hPa | - | - | - | - |
* Rain since midnight (hover to see other rain measurements)
** Current wind speed in m/s (hover to see current wind gust speed)